METAR UND TAF INFORMATION
ZWSH 161000Z VRB03MPS 9999 FEW033TCU 29/01 Q1012 NOSIG

 FLUGHAFENKARTE

 RUNWAY INFORMATION
Runway 08 Runway length 10499 ft Runway width 135 ft
Runway elevation 4524 ft Runway displaced threshold 0 ft Runway heading 86
Runway 26 Runway length 10499 ft Runway width 135 ft
Runway elevation 4498 ft Runway displaced threshold 0 ft Runway heading 266

 AIRPORT FREQUENCIES
Type TWR Name TWR Frequency 118.5 MHZ

 AIRPORT NEAR NAVIGATION AIDS
Type VOR-DME Name Kashi Frequency 115700 KHZ